Time;durP1;ratioP1;P1;durP2;ratioP2;P2;SDS_P1;SDS_P2;PMS_P1;PMS_P2;Temp;Humidity;BMP_temperature;BMP_pressure;BME280_temperature;BME280_humidity;BME280_pressure;Samples;Min_cycle;Max_cycle;Signal;HPM_P1;HPM_P2
2022/07/14 00:00:59;;;;;;;4.88;3.13;;;27.40;54.70;;;;;;5038660;28;20104;-61
2022/07/14 00:03:25;;;;;;;4.82;2.65;;;27.40;54.70;;;;;;5036680;28;20037;-61
2022/07/14 00:05:50;;;;;;;6.32;2.97;;;27.30;54.60;;;;;;5004638;28;20029;-61
2022/07/14 00:08:16;;;;;;;4.60;2.85;;;27.30;54.70;;;;;;5035114;28;20278;-62
2022/07/14 00:10:41;;;;;;;4.65;2.58;;;27.30;54.70;;;;;;5035929;28;20638;-61
2022/07/14 00:13:07;;;;;;;3.85;2.78;;;27.30;54.80;;;;;;5036624;28;20392;-61
2022/07/14 00:15:32;;;;;;;3.67;2.63;;;27.30;54.90;;;;;;5005138;28;20044;-62
2022/07/14 00:17:59;;;;;;;5.70;2.97;;;27.20;55.00;;;;;;5039374;28;20028;-61
2022/07/14 00:20:25;;;;;;;4.65;3.00;;;27.30;55.10;;;;;;5033692;28;20116;-62
2022/07/14 00:22:51;;;;;;;8.68;3.10;;;27.30;55.30;;;;;;5018522;28;20031;-62
2022/07/14 00:25:16;;;;;;;3.20;2.67;;;27.20;55.30;;;;;;5017149;28;20037;-60
2022/07/14 00:27:43;;;;;;;3.38;2.85;;;27.40;55.50;;;;;;5037679;28;20089;-60
2022/07/14 00:30:09;;;;;;;4.55;2.90;;;27.20;55.50;;;;;;5020550;28;20414;-61
2022/07/14 00:32:35;;;;;;;4.68;3.22;;;27.20;55.50;;;;;;5034331;28;20446;-62
2022/07/14 00:35:00;;;;;;;2.72;2.47;;;27.20;55.80;;;;;;5036578;28;20029;-61
2022/07/14 00:37:26;;;;;;;5.20;2.97;;;27.20;56.10;;;;;;5036578;28;20045;-61
2022/07/14 00:39:54;;;;;;;4.97;3.05;;;27.10;56.20;;;;;;5018214;28;20139;-61
2022/07/14 00:42:33;;;;;;;6.82;3.28;;;27.10;56.20;;;;;;5036963;28;20061;-60
2022/07/14 00:45:00;;;;;;;4.18;2.85;;;27.10;56.10;;;;;;5037683;28;20412;-61
2022/07/14 00:47:26;;;;;;;5.72;2.92;;;27.10;56.20;;;;;;5037262;28;20037;-62
2022/07/14 00:49:52;;;;;;;4.50;3.15;;;27.10;56.10;;;;;;5034061;28;20036;-60
2022/07/14 00:52:18;;;;;;;3.40;2.65;;;27.00;56.10;;;;;;5035924;28;20032;-61
2022/07/14 00:54:44;;;;;;;5.80;3.00;;;27.00;56.20;;;;;;5020881;28;20126;-61
2022/07/14 00:57:09;;;;;;;5.72;2.85;;;27.00;56.30;;;;;;5037985;28;20166;-61
2022/07/14 00:59:35;;;;;;;4.75;2.65;;;27.00;56.50;;;;;;5035135;28;20025;-61
2022/07/14 01:02:00;;;;;;;5.18;2.70;;;26.90;56.50;;;;;;5034980;28;20183;-61
2022/07/14 01:04:26;;;;;;;5.63;2.72;;;27.00;56.50;;;;;;5036876;28;20789;-61
2022/07/14 01:06:51;;;;;;;6.13;2.60;;;27.00;56.50;;;;;;5034971;28;20110;-60
2022/07/14 01:09:17;;;;;;;3.22;2.20;;;26.90;56.40;;;;;;5038106;28;20135;-61
2022/07/14 01:11:42;;;;;;;3.78;2.50;;;26.90;56.40;;;;;;5038259;28;20033;-61
2022/07/14 01:14:08;;;;;;;6.50;2.55;;;26.90;56.40;;;;;;5036297;28;20100;-61
2022/07/14 01:16:35;;;;;;;3.47;2.70;;;26.90;56.50;;;;;;5018574;28;20038;-61
2022/07/14 01:19:01;;;;;;;5.10;2.58;;;26.90;56.50;;;;;;5001038;28;20032;-61
2022/07/14 01:21:26;;;;;;;4.57;2.42;;;26.90;56.50;;;;;;5035256;28;20033;-61
2022/07/14 01:23:52;;;;;;;3.03;2.40;;;26.90;56.60;;;;;;5033341;28;20031;-61
2022/07/14 01:26:17;;;;;;;4.45;2.78;;;26.90;56.60;;;;;;5038283;28;20424;-61
2022/07/14 01:28:43;;;;;;;3.80;2.30;;;26.90;56.70;;;;;;5037713;28;20041;-61
2022/07/14 01:31:08;;;;;;;3.67;2.42;;;26.90;56.90;;;;;;5036643;28;20116;-61
2022/07/14 01:33:34;;;;;;;5.47;2.38;;;26.90;56.80;;;;;;5033425;28;20017;-61
2022/07/14 01:35:59;;;;;;;3.25;2.22;;;26.80;57.00;;;;;;5034224;28;20104;-61
2022/07/14 01:38:25;;;;;;;4.63;2.40;;;26.80;57.00;;;;;;5034373;28;20037;-61
2022/07/14 01:40:50;;;;;;;6.53;2.40;;;26.80;56.80;;;;;;5035960;28;20560;-61
2022/07/14 01:43:16;;;;;;;3.80;2.67;;;26.80;56.90;;;;;;5032322;28;20041;-61
2022/07/14 01:45:41;;;;;;;3.05;2.20;;;26.70;56.90;;;;;;5039391;28;20196;-61
2022/07/14 01:48:07;;;;;;;5.97;2.33;;;26.70;57.10;;;;;;5035581;28;20471;-61
2022/07/14 01:50:32;;;;;;;4.93;2.75;;;26.70;57.20;;;;;;5039287;28;20499;-60
2022/07/14 01:52:58;;;;;;;2.92;2.00;;;26.60;57.30;;;;;;5040665;28;20025;-61
2022/07/14 01:55:23;;;;;;;4.68;2.15;;;26.60;57.50;;;;;;5038042;28;20045;-61
2022/07/14 01:57:49;;;;;;;4.70;2.20;;;26.60;57.30;;;;;;5041017;28;20051;-61
2022/07/14 02:00:15;;;;;;;3.60;2.30;;;26.60;57.40;;;;;;5039660;28;20479;-60
2022/07/14 02:02:41;;;;;;;2.83;2.30;;;26.60;57.50;;;;;;5041057;28;20232;-61
2022/07/14 02:05:09;;;;;;;2.78;2.30;;;26.60;57.60;;;;;;5042637;28;20136;-61
2022/07/14 02:07:35;;;;;;;2.58;2.33;;;26.60;57.70;;;;;;5021900;28;20065;-60
2022/07/14 02:12:45;;;;;;;2.38;2.17;;;26.60;57.80;;;;;;5037684;28;20515;-61
2022/07/14 02:15:10;;;;;;;3.35;1.67;;;26.60;57.90;;;;;;5035890;28;20025;-61
2022/07/14 02:17:36;;;;;;;2.13;1.83;;;26.50;57.90;;;;;;5039187;28;20083;-61
2022/07/14 02:20:02;;;;;;;3.95;2.08;;;26.50;58.10;;;;;;5038423;28;20398;-61
2022/07/14 02:22:27;;;;;;;2.47;1.75;;;26.50;58.00;;;;;;5038999;28;20115;-61
2022/07/14 02:24:53;;;;;;;5.15;2.08;;;26.50;58.10;;;;;;5042268;28;20127;-61
2022/07/14 02:27:19;;;;;;;4.30;2.13;;;26.50;58.30;;;;;;5038599;28;20098;-61
2022/07/14 02:29:44;;;;;;;6.20;2.00;;;26.50;58.30;;;;;;5039974;28;20025;-61
2022/07/14 02:32:10;;;;;;;2.72;1.98;;;26.40;58.70;;;;;;5040983;28;20051;-61
2022/07/14 02:34:35;;;;;;;3.58;1.60;;;26.50;57.90;;;;;;5038124;28;20326;-61
2022/07/14 02:37:01;;;;;;;2.88;2.00;;;26.50;58.60;;;;;;5039527;28;20272;-61
2022/07/14 02:39:26;;;;;;;3.72;2.40;;;26.50;58.00;;;;;;5039799;28;20159;-61
2022/07/14 02:41:52;;;;;;;3.00;2.20;;;26.40;58.10;;;;;;5040305;28;20036;-61
2022/07/14 02:44:17;;;;;;;6.38;2.15;;;26.40;58.20;;;;;;5039899;28;20473;-60
2022/07/14 02:46:43;;;;;;;3.90;2.38;;;26.40;58.30;;;;;;5038713;28;20518;-61
2022/07/14 02:49:08;;;;;;;3.28;2.50;;;26.40;58.30;;;;;;5040222;28;20037;-61
2022/07/14 02:51:34;;;;;;;3.03;1.83;;;26.40;58.20;;;;;;5039287;28;20021;-61
2022/07/14 02:54:00;;;;;;;2.40;1.92;;;26.40;58.10;;;;;;5021774;28;20024;-61
2022/07/14 02:56:26;;;;;;;2.88;1.70;;;26.40;58.10;;;;;;5039600;28;20081;-61
2022/07/14 02:58:51;;;;;;;2.28;1.73;;;26.40;58.20;;;;;;5039983;28;20029;-61
2022/07/14 03:01:17;;;;;;;3.28;2.08;;;26.40;58.20;;;;;;5037981;28;20376;-61
2022/07/14 03:03:42;;;;;;;3.42;2.05;;;26.30;58.20;;;;;;5038593;28;20078;-61
2022/07/14 03:06:13;;;;;;;5.57;2.40;;;26.30;59.20;;;;;;5039339;28;20608;-61
2022/07/14 03:08:38;;;;;;;3.15;1.85;;;26.30;58.90;;;;;;5023162;28;20029;-61
2022/07/14 03:11:04;;;;;;;2.13;1.70;;;26.30;58.60;;;;;;5039067;28;20134;-61
2022/07/14 03:13:30;;;;;;;2.85;2.20;;;26.30;58.80;;;;;;5038059;28;20341;-61
2022/07/14 03:15:55;;;;;;;3.80;2.03;;;26.30;59.00;;;;;;5038004;28;20044;-60
2022/07/14 03:18:21;;;;;;;5.38;2.15;;;26.30;59.00;;;;;;5040688;28;20112;-61
2022/07/14 03:20:46;;;;;;;3.17;2.15;;;26.20;58.90;;;;;;5040520;28;20131;-60
2022/07/14 03:23:12;;;;;;;7.00;2.10;;;26.20;58.80;;;;;;5038349;28;20029;-61
2022/07/14 03:25:42;;;;;;;2.70;1.73;;;26.20;58.90;;;;;;5039573;28;20861;-61
2022/07/14 03:28:07;;;;;;;3.65;1.77;;;26.20;58.90;;;;;;5041500;28;20036;-61
2022/07/14 03:30:32;;;;;;;5.70;2.05;;;26.20;58.90;;;;;;5005308;28;20054;-60
2022/07/14 03:32:58;;;;;;;4.18;2.20;;;26.20;59.00;;;;;;5041035;28;20214;-60
2022/07/14 03:35:24;;;;;;;3.88;1.70;;;26.20;59.10;;;;;;5036767;28;20152;-60
2022/07/14 03:37:49;;;;;;;4.88;2.00;;;26.10;59.20;;;;;;5019362;28;20024;-60
2022/07/14 03:40:15;;;;;;;6.35;2.75;;;26.10;59.20;;;;;;5019448;28;20454;-61
2022/07/14 03:42:40;;;;;;;9.80;3.55;;;26.10;59.20;;;;;;5038067;28;20044;-60
2022/07/14 03:45:06;;;;;;;10.82;3.15;;;26.10;59.30;;;;;;5040138;28;20029;-60
2022/07/14 03:47:32;;;;;;;5.55;2.45;;;26.10;59.30;;;;;;5037543;28;20668;-61
2022/07/14 03:49:58;;;;;;;6.85;2.80;;;26.10;59.30;;;;;;5035721;28;20098;-61
2022/07/14 03:52:24;;;;;;;7.30;2.75;;;26.10;59.40;;;;;;5040196;28;20049;-60
2022/07/14 03:54:49;;;;;;;3.53;2.35;;;26.10;59.30;;;;;;5039963;28;20032;-60
2022/07/14 03:57:15;;;;;;;6.32;2.72;;;26.00;59.20;;;;;;5037820;28;20053;-60
2022/07/14 03:59:40;;;;;;;8.25;2.92;;;26.00;59.30;;;;;;5041228;28;20029;-61
2022/07/14 04:02:10;;;;;;;7.45;2.75;;;26.00;59.30;;;;;;5037543;28;20056;-61
2022/07/14 04:04:35;;;;;;;5.20;3.05;;;26.00;59.20;;;;;;5037184;28;20025;-60
2022/07/14 04:07:01;;;;;;;4.90;2.78;;;26.00;59.30;;;;;;5037757;28;20515;-61
2022/07/14 04:09:26;;;;;;;8.50;2.92;;;26.00;59.30;;;;;;5038416;28;20024;-61
2022/07/14 04:11:52;;;;;;;7.07;2.85;;;26.00;59.60;;;;;;5037504;28;20033;-61
2022/07/14 04:14:17;;;;;;;13.90;3.65;;;26.00;59.70;;;;;;5035996;28;20039;-61
2022/07/14 04:16:43;;;;;;;80.63;8.40;;;26.00;59.80;;;;;;5018891;28;20131;-61
2022/07/14 04:19:09;;;;;;;31.30;4.75;;;26.00;59.90;;;;;;5035894;28;20044;-61
2022/07/14 04:21:36;;;;;;;17.60;3.80;;;26.00;60.00;;;;;;5037988;28;20013;-61
2022/07/14 04:24:01;;;;;;;12.13;3.15;;;26.00;59.90;;;;;;5022078;28;20416;-60
2022/07/14 04:26:27;;;;;;;21.73;3.47;;;25.90;59.90;;;;;;5034494;28;20036;-61
2022/07/14 04:28:53;;;;;;;15.00;3.25;;;25.90;60.10;;;;;;5036781;28;20026;-61
2022/07/14 04:31:18;;;;;;;19.65;4.25;;;25.90;60.00;;;;;;5019261;28;20583;-61
2022/07/14 04:33:44;;;;;;;28.55;4.00;;;25.90;60.00;;;;;;5034499;28;20033;-61
2022/07/14 04:36:09;;;;;;;15.88;3.50;;;25.90;60.10;;;;;;5037405;28;20040;-60
2022/07/14 04:38:35;;;;;;;16.67;3.63;;;25.90;60.10;;;;;;5041279;28;20129;-61
2022/07/14 04:41:00;;;;;;;15.40;3.42;;;25.90;60.20;;;;;;5037480;28;20353;-61
2022/07/14 04:43:26;;;;;;;12.98;3.10;;;25.90;60.20;;;;;;5037671;28;20099;-60
2022/07/14 04:45:51;;;;;;;15.50;4.30;;;25.90;60.30;;;;;;5036242;28;20049;-61
2022/07/14 04:48:17;;;;;;;13.82;3.35;;;25.80;60.20;;;;;;5038968;28;20041;-61
2022/07/14 04:53:26;;;;;;;15.98;3.03;;;25.80;60.20;;;;;;5036957;28;20179;-62
2022/07/14 04:55:53;;;;;;;13.80;3.38;;;25.90;60.10;;;;;;5036142;28;20029;-60
2022/07/14 04:58:19;;;;;;;14.32;3.47;;;25.80;60.20;;;;;;5038269;28;20136;-61
2022/07/14 05:00:44;;;;;;;14.95;3.72;;;25.80;60.30;;;;;;5035377;28;20135;-61
2022/07/14 05:03:10;;;;;;;13.00;3.58;;;25.80;60.50;;;;;;5019929;28;20107;-61
2022/07/14 05:05:35;;;;;;;14.55;3.30;;;25.80;60.90;;;;;;5035600;28;20765;-61
2022/07/14 05:08:01;;;;;;;13.45;3.88;;;25.80;61.10;;;;;;5035951;28;20029;-61
2022/07/14 05:10:26;;;;;;;13.57;3.55;;;25.80;61.20;;;;;;5036925;28;20048;-61
2022/07/14 05:12:52;;;;;;;7.72;3.00;;;25.80;61.30;;;;;;5029763;28;20094;-61
2022/07/14 05:15:17;;;;;;;15.20;3.08;;;25.80;61.30;;;;;;5017793;28;20051;-60
2022/07/14 05:17:44;;;;;;;10.38;2.92;;;25.80;61.70;;;;;;5039074;28;20029;-61
2022/07/14 05:20:10;;;;;;;7.75;3.33;;;25.80;61.70;;;;;;5040853;28;20116;-61
2022/07/14 05:22:37;;;;;;;12.65;3.72;;;25.80;61.70;;;;;;5041123;28;20694;-61
2022/07/14 05:25:08;;;;;;;18.48;4.15;;;25.80;61.50;;;;;;5036502;28;20047;-61
2022/07/14 05:27:33;;;;;;;13.48;3.30;;;25.80;61.20;;;;;;5037058;28;20108;-60
2022/07/14 05:29:59;;;;;;;11.13;3.13;;;25.80;61.20;;;;;;5040722;28;20033;-61
2022/07/14 05:32:25;;;;;;;11.80;3.17;;;25.80;61.00;;;;;;5037967;28;20584;-60
2022/07/14 05:34:50;;;;;;;12.10;3.33;;;25.80;61.40;;;;;;5035237;28;20025;-61
2022/07/14 05:37:16;;;;;;;15.32;3.30;;;25.90;61.30;;;;;;5039314;28;20350;-61
2022/07/14 05:39:41;;;;;;;16.02;3.45;;;25.80;61.20;;;;;;5040115;28;20515;-61
2022/07/14 05:42:07;;;;;;;18.25;3.67;;;25.80;61.50;;;;;;5041404;28;20043;-61
2022/07/14 05:44:34;;;;;;;22.95;4.50;;;25.90;61.50;;;;;;5040437;28;20240;-60
2022/07/14 05:47:00;;;;;;;31.20;5.18;;;25.80;61.70;;;;;;5038831;28;20025;-61
2022/07/14 05:49:26;;;;;;;33.15;5.32;;;25.90;61.90;;;;;;5036843;28;20072;-61
2022/07/14 05:51:51;;;;;;;26.00;5.50;;;25.80;62.10;;;;;;5031455;28;20514;-63
2022/07/14 05:54:17;;;;;;;22.23;4.60;;;25.90;62.00;;;;;;5041260;28;20052;-62
2022/07/14 05:56:42;;;;;;;21.92;4.43;;;25.80;61.60;;;;;;5038984;28;20036;-62
2022/07/14 05:59:08;;;;;;;29.58;5.68;;;25.90;61.60;;;;;;5040849;28;20041;-62
2022/07/14 06:01:34;;;;;;;33.83;5.78;;;25.90;61.60;;;;;;5039511;28;20029;-63
2022/07/14 06:03:59;;;;;;;27.08;5.28;;;25.90;61.70;;;;;;5043661;28;20036;-61
2022/07/14 06:06:25;;;;;;;25.40;5.40;;;25.90;62.40;;;;;;5041802;28;20032;-62
2022/07/14 06:08:50;;;;;;;32.40;6.18;;;25.90;62.70;;;;;;5041948;28;20025;-63
2022/07/14 06:11:16;;;;;;;31.80;5.82;;;25.90;62.90;;;;;;5039384;28;20051;-62
2022/07/14 06:13:42;;;;;;;50.17;6.85;;;25.90;62.90;;;;;;5040208;28;20199;-62
2022/07/14 06:16:08;;;;;;;37.55;5.85;;;25.80;63.00;;;;;;5036014;28;21140;-64
2022/07/14 06:18:33;;;;;;;27.73;6.00;;;25.80;63.10;;;;;;5039892;28;20727;-62
2022/07/14 06:20:59;;;;;;;25.35;6.40;;;25.80;63.30;;;;;;5034181;28;20079;-63
2022/07/14 06:23:24;;;;;;;36.80;6.70;;;25.80;63.10;;;;;;5037111;28;20039;-62
2022/07/14 06:25:50;;;;;;;70.72;8.95;;;25.80;63.00;;;;;;5035426;28;20040;-60
2022/07/14 06:28:15;;;;;;;44.78;7.50;;;25.80;63.60;;;;;;5039194;28;21705;-61
2022/07/14 06:30:41;;;;;;;44.47;8.07;;;25.80;63.90;;;;;;5034545;28;20065;-61
2022/07/14 06:33:06;;;;;;;46.90;8.25;;;25.80;64.20;;;;;;5038359;28;20061;-61
2022/07/14 06:35:32;;;;;;;68.95;8.60;;;25.80;64.00;;;;;;5034852;28;20688;-61
2022/07/14 06:37:57;;;;;;;55.22;11.20;;;25.80;64.00;;;;;;5028210;28;20478;-61
2022/07/14 06:40:23;;;;;;;50.05;9.68;;;25.80;64.20;;;;;;5038572;28;20053;-61
2022/07/14 06:42:48;;;;;;;47.47;9.65;;;25.80;64.60;;;;;;5032487;28;20065;-60
2022/07/14 06:45:14;;;;;;;47.72;8.15;;;25.80;65.40;;;;;;5033729;28;20033;-61
2022/07/14 06:47:40;;;;;;;51.63;7.75;;;25.80;65.80;;;;;;5016084;28;20021;-62
2022/07/14 06:50:06;;;;;;;39.92;7.88;;;25.70;66.60;;;;;;5032849;28;20028;-61
2022/07/14 06:52:31;;;;;;;43.95;8.93;;;25.70;67.00;;;;;;5017676;28;20054;-60
2022/07/14 06:54:58;;;;;;;42.58;7.93;;;25.70;66.90;;;;;;5031831;28;20036;-60
2022/07/14 06:57:24;;;;;;;26.77;7.13;;;25.70;67.20;;;;;;5010705;28;20051;-61
2022/07/14 06:59:49;;;;;;;35.40;6.00;;;25.60;67.40;;;;;;5029940;28;20489;-61
2022/07/14 07:02:15;;;;;;;36.90;7.93;;;25.60;67.70;;;;;;5029506;28;20048;-61
2022/07/14 07:04:40;;;;;;;40.55;7.55;;;25.60;67.80;;;;;;5031741;28;20056;-60
2022/07/14 07:07:06;;;;;;;37.85;7.35;;;25.60;68.50;;;;;;5030972;28;20064;-61
2022/07/14 07:09:31;;;;;;;30.20;6.57;;;25.60;68.60;;;;;;5010965;28;20041;-62
2022/07/14 07:11:57;;;;;;;143.65;21.08;;;25.60;68.80;;;;;;4995685;28;20061;-60
2022/07/14 07:14:22;;;;;;;36.80;7.35;;;25.60;69.10;;;;;;5026329;28;20132;-62
2022/07/14 07:16:49;;;;;;;28.98;6.82;;;25.60;69.10;;;;;;5037053;28;20112;-61
2022/07/14 07:19:14;;;;;;;85.25;10.77;;;25.60;69.40;;;;;;5012862;28;20029;-61
2022/07/14 07:21:40;;;;;;;36.78;6.72;;;25.60;69.50;;;;;;5032544;28;20071;-60
2022/07/14 07:24:06;;;;;;;24.92;5.63;;;25.60;69.30;;;;;;5019742;28;20043;-61
2022/07/14 07:26:33;;;;;;;36.47;6.43;;;25.60;69.60;;;;;;5011930;28;20049;-61
2022/07/14 07:28:58;;;;;;;38.17;6.00;;;25.60;69.60;;;;;;5016550;28;20514;-61
2022/07/14 07:31:25;;;;;;;110.30;12.10;;;25.70;69.80;;;;;;5031078;28;20032;-60
2022/07/14 07:33:51;;;;;;;43.05;6.43;;;25.70;69.80;;;;;;5028957;28;20543;-61
2022/07/14 07:36:17;;;;;;;38.22;6.45;;;25.70;69.60;;;;;;5010673;28;20024;-62
2022/07/14 07:38:42;;;;;;;41.97;6.55;;;25.70;69.50;;;;;;5030734;28;20121;-61
2022/07/14 07:41:08;;;;;;;63.10;6.50;;;25.70;69.30;;;;;;5020098;28;20043;-62
2022/07/14 07:43:34;;;;;;;102.20;11.98;;;25.80;69.30;;;;;;5025204;28;20089;-61
2022/07/14 07:45:59;;;;;;;74.43;9.88;;;25.80;69.20;;;;;;5029786;28;21789;-61
2022/07/14 07:48:25;;;;;;;47.88;6.97;;;25.80;69.10;;;;;;5032547;28;20075;-61
2022/07/14 07:50:51;;;;;;;49.33;6.68;;;25.90;68.70;;;;;;5015538;28;20116;-60
2022/07/14 07:53:16;;;;;;;37.42;6.30;;;25.90;68.60;;;;;;5024350;28;20362;-60
2022/07/14 07:55:42;;;;;;;43.65;7.07;;;26.00;68.80;;;;;;5030894;28;20017;-61
2022/07/14 07:58:07;;;;;;;53.42;6.60;;;26.00;68.60;;;;;;5032654;28;20701;-61
2022/07/14 08:00:33;;;;;;;44.25;6.32;;;26.00;68.60;;;;;;5034377;28;20053;-62
2022/07/14 08:03:01;;;;;;;197.38;18.60;;;26.00;68.60;;;;;;5012513;28;20049;-61
2022/07/14 08:05:27;;;;;;;56.65;8.25;;;26.00;68.30;;;;;;5026518;28;20175;-61
2022/07/14 08:07:52;;;;;;;49.88;6.28;;;26.10;68.10;;;;;;5010765;28;20026;-61
2022/07/14 08:10:18;;;;;;;39.50;6.93;;;26.10;68.10;;;;;;5026682;28;20428;-61
2022/07/14 08:12:44;;;;;;;47.17;6.60;;;26.10;67.90;;;;;;5001974;28;20047;-61
2022/07/14 08:15:10;;;;;;;42.92;5.97;;;26.20;67.60;;;;;;5031545;28;20021;-61
2022/07/14 08:17:35;;;;;;;46.28;6.70;;;26.20;67.60;;;;;;5013520;28;20112;-61
2022/07/14 08:20:01;;;;;;;59.10;6.97;;;26.20;67.20;;;;;;5030398;28;20565;-61
2022/07/14 08:22:27;;;;;;;49.63;7.22;;;26.30;67.20;;;;;;5028085;28;20449;-61
2022/07/14 08:24:53;;;;;;;41.75;5.93;;;26.30;67.30;;;;;;5034305;28;20075;-61
2022/07/14 08:27:19;;;;;;;47.13;6.32;;;26.30;67.10;;;;;;5034012;28;20021;-60
2022/07/14 08:29:44;;;;;;;42.97;5.53;;;26.40;67.10;;;;;;5029440;28;20031;-61
2022/07/14 08:32:10;;;;;;;32.85;5.13;;;26.40;67.00;;;;;;5033292;28;20033;-61
2022/07/14 08:34:35;;;;;;;29.13;5.35;;;26.50;66.80;;;;;;4995803;28;20381;-61
2022/07/14 08:37:01;;;;;;;48.55;6.10;;;26.50;66.60;;;;;;5034666;28;20120;-61
2022/07/14 08:39:26;;;;;;;36.60;5.82;;;26.60;66.30;;;;;;5016195;28;21410;-62
2022/07/14 08:41:54;;;;;;;37.13;5.85;;;26.60;65.50;;;;;;5028008;28;20043;-60
2022/07/14 08:44:20;;;;;;;26.55;4.38;;;26.60;65.40;;;;;;5014634;28;20199;-63
2022/07/14 08:46:46;;;;;;;28.42;4.32;;;26.60;64.30;;;;;;5032456;28;20120;-63
2022/07/14 08:49:11;;;;;;;45.75;6.55;;;26.70;64.00;;;;;;5010313;28;20037;-64
2022/07/14 08:51:37;;;;;;;27.88;5.38;;;26.80;64.00;;;;;;5029153;28;20048;-63
2022/07/14 08:54:03;;;;;;;26.50;3.95;;;26.80;63.50;;;;;;5017833;28;20044;-63
2022/07/14 08:56:30;;;;;;;25.63;3.65;;;26.80;62.90;;;;;;5022927;28;20041;-63
2022/07/14 08:58:55;;;;;;;24.52;3.33;;;26.90;62.70;;;;;;5037054;28;20667;-63
2022/07/14 09:01:21;;;;;;;22.80;3.63;;;26.90;62.30;;;;;;5034758;28;20222;-61
2022/07/14 09:03:48;;;;;;;24.35;3.00;;;26.90;62.40;;;;;;5012362;28;20052;-61
2022/07/14 09:06:53;;;;;;;14.60;2.97;;;26.90;62.40;;;;;;5042485;28;20037;-61
2022/07/14 09:09:21;;;;;;;22.40;3.70;;;27.00;62.20;;;;;;5036390;28;20028;-61
2022/07/14 09:11:54;;;;;;;36.20;4.70;;;27.00;62.30;;;;;;5034719;28;20116;-61
2022/07/14 09:14:20;;;;;;;18.70;3.35;;;27.10;62.30;;;;;;5042613;28;20029;-61
2022/07/14 09:16:45;;;;;;;42.17;4.65;;;27.10;62.00;;;;;;5038673;28;20041;-61
2022/07/14 09:19:13;;;;;;;23.20;4.10;;;27.20;62.20;;;;;;5039387;28;20088;-61
2022/07/14 09:21:40;;;;;;;25.52;4.03;;;27.20;62.30;;;;;;5045040;28;20525;-61
2022/07/14 09:24:09;;;;;;;33.35;3.78;;;27.20;62.40;;;;;;5026718;28;20488;-62
2022/07/14 09:27:01;;;;;;;34.30;4.50;;;27.20;62.50;;;;;;5005590;28;20444;-61
2022/07/14 09:29:29;;;;;;;31.23;4.38;;;27.30;62.70;;;;;;5043288;28;20492;-61
2022/07/14 09:31:54;;;;;;;38.15;4.72;;;27.30;62.70;;;;;;5028402;28;20043;-61
2022/07/14 09:34:33;;;;;;;33.95;4.88;;;27.30;62.50;;;;;;5043629;28;20020;-61
2022/07/14 09:37:15;;;;;;;50.42;6.28;;;27.40;62.40;;;;;;5035574;28;20042;-63
2022/07/14 09:39:51;;;;;;;39.35;9.65;;;27.40;62.40;;;;;;5025366;28;20139;-62
2022/07/14 09:42:17;;;;;;;37.33;12.45;;;27.50;62.50;;;;;;5018391;28;20040;-62
2022/07/14 09:44:42;;;;;;;33.65;6.30;;;27.50;62.40;;;;;;5029682;28;20808;-61
2022/07/14 09:47:08;;;;;;;30.60;7.45;;;27.50;62.10;;;;;;5020859;28;20017;-60
2022/07/14 09:49:34;;;;;;;24.08;4.93;;;27.60;62.00;;;;;;5019723;28;20162;-60
2022/07/14 09:52:06;;;;;;;23.90;4.93;;;27.60;61.60;;;;;;5006456;28;21404;-61
2022/07/14 09:54:41;;;;;;;33.75;5.35;;;27.60;61.30;;;;;;5025516;28;20029;-61
2022/07/14 09:57:13;;;;;;;22.02;3.88;;;27.70;61.30;;;;;;5037453;28;20033;-61
2022/07/14 09:59:50;;;;;;;21.33;4.55;;;27.70;61.30;;;;;;5042932;28;20074;-61
2022/07/14 10:02:29;;;;;;;28.67;4.88;;;27.70;61.30;;;;;;4998919;28;20440;-60
2022/07/14 10:05:05;;;;;;;31.63;5.03;;;27.80;61.40;;;;;;5017645;28;20037;-61
2022/07/14 10:07:35;;;;;;;42.78;4.72;;;27.80;61.40;;;;;;5038436;28;20579;-61
2022/07/14 10:10:11;;;;;;;41.05;4.88;;;27.80;61.10;;;;;;5034830;28;20022;-60
2022/07/14 10:12:38;;;;;;;25.83;4.18;;;27.80;60.90;;;;;;5041092;28;20111;-61
2022/07/14 10:15:10;;;;;;;34.58;4.88;;;27.80;60.60;;;;;;5019454;28;20038;-61
2022/07/14 10:17:37;;;;;;;27.27;4.97;;;27.90;60.60;;;;;;5020290;28;20040;-64
2022/07/14 10:20:04;;;;;;;32.55;4.75;;;27.90;60.40;;;;;;5017944;28;20392;-60
2022/07/14 10:22:30;;;;;;;31.65;4.10;;;27.90;59.70;;;;;;5031081;28;20028;-60
2022/07/14 10:24:56;;;;;;;37.95;4.70;;;27.90;59.20;;;;;;5012526;28;20049;-61
2022/07/14 10:27:21;;;;;;;28.30;4.50;;;27.90;59.10;;;;;;5012154;28;20057;-62
2022/07/14 10:29:49;;;;;;;34.03;4.35;;;28.00;58.90;;;;;;5013677;28;20112;-60
2022/07/14 10:32:30;;;;;;;27.00;3.85;;;28.00;58.30;;;;;;5016045;28;20036;-63
2022/07/14 10:35:00;;;;;;;30.75;4.10;;;28.00;57.40;;;;;;5017091;28;20021;-61
2022/07/14 10:37:44;;;;;;;40.53;4.63;;;28.10;57.20;;;;;;5014144;28;20029;-62
2022/07/14 10:40:17;;;;;;;33.95;4.18;;;28.10;57.00;;;;;;5033604;28;20172;-61
2022/07/14 10:42:48;;;;;;;50.13;6.03;;;28.20;56.70;;;;;;5031408;28;20079;-61
2022/07/14 10:45:13;;;;;;;48.08;4.78;;;28.20;56.70;;;;;;5036731;28;20231;-61
2022/07/14 10:47:51;;;;;;;38.25;4.35;;;28.30;56.50;;;;;;5028267;28;20035;-61
2022/07/14 10:50:27;;;;;;;38.47;5.55;;;28.30;55.70;;;;;;5027823;28;20433;-62
2022/07/14 10:53:06;;;;;;;28.08;3.80;;;28.40;54.80;;;;;;5035244;28;20052;-61
2022/07/14 10:55:34;;;;;;;44.83;5.07;;;28.30;54.20;;;;;;5015870;28;20131;-61
2022/07/14 10:57:59;;;;;;;43.88;4.75;;;28.50;54.20;;;;;;5004440;28;20106;-62
2022/07/14 11:00:43;;;;;;;45.15;5.68;;;28.60;54.10;;;;;;5038091;28;20029;-61
2022/07/14 11:03:18;;;;;;;53.53;5.35;;;28.60;53.60;;;;;;5037442;28;20550;-61
2022/07/14 11:06:03;;;;;;;41.90;4.88;;;28.60;53.20;;;;;;5034718;28;20147;-61
2022/07/14 11:08:32;;;;;;;27.48;4.55;;;28.70;53.00;;;;;;5034925;28;20036;-61
2022/07/14 11:11:02;;;;;;;18.30;3.35;;;28.80;52.90;;;;;;5020975;28;20468;-61
2022/07/14 11:13:27;;;;;;;28.05;5.10;;;28.90;52.50;;;;;;5016090;28;20032;-61
2022/07/14 11:16:03;;;;;;;28.33;4.22;;;29.00;52.50;;;;;;5013695;28;20033;-61
2022/07/14 11:18:34;;;;;;;26.88;3.95;;;29.10;52.30;;;;;;5036360;28;20392;-62
2022/07/14 11:21:07;;;;;;;27.65;3.75;;;29.20;52.20;;;;;;5030479;28;20154;-62
2022/07/14 11:23:42;;;;;;;24.88;3.90;;;29.30;52.10;;;;;;5026452;28;20048;-62
2022/07/14 11:26:28;;;;;;;25.63;4.82;;;29.40;52.20;;;;;;5034190;28;20036;-61
2022/07/14 11:28:53;;;;;;;23.02;3.70;;;29.50;52.00;;;;;;5034278;28;20223;-61
2022/07/14 11:31:23;;;;;;;22.05;3.50;;;29.60;51.80;;;;;;5001585;28;21002;-62
2022/07/14 11:37:00;;;;;;;18.17;3.05;;;29.80;51.40;;;;;;5026009;28;20037;-62
2022/07/14 11:39:36;;;;;;;19.45;3.47;;;29.90;51.10;;;;;;5016666;28;20440;-62
2022/07/14 11:42:03;;;;;;;18.92;2.70;;;30.00;51.10;;;;;;5033120;28;20033;-63
2022/07/14 11:44:43;;;;;;;20.63;3.22;;;30.10;50.80;;;;;;5019800;28;20033;-62
2022/07/14 11:47:20;;;;;;;14.90;2.70;;;30.20;51.00;;;;;;5021107;28;20082;-63
2022/07/14 11:49:53;;;;;;;16.83;2.95;;;30.20;51.00;;;;;;5016148;28;20381;-63
2022/07/14 11:52:32;;;;;;;21.35;3.17;;;30.30;51.00;;;;;;5039352;28;20438;-63
2022/07/14 11:54:59;;;;;;;19.05;3.35;;;30.40;51.10;;;;;;5035903;28;20025;-63
2022/07/14 11:57:25;;;;;;;17.95;2.78;;;30.50;51.00;;;;;;5016953;28;20025;-62
2022/07/14 11:59:50;;;;;;;18.85;3.08;;;30.60;51.00;;;;;;5037467;28;20547;-62
2022/07/14 12:02:18;;;;;;;22.60;3.45;;;30.70;50.80;;;;;;5028537;28;20798;-63
2022/07/14 12:04:49;;;;;;;15.52;2.80;;;30.80;50.90;;;;;;5023655;28;20017;-63
2022/07/14 12:07:15;;;;;;;19.80;3.25;;;30.80;51.00;;;;;;5024742;28;20021;-62
2022/07/14 12:09:41;;;;;;;33.63;3.75;;;30.80;50.80;;;;;;5032431;28;20017;-62
2022/07/14 12:12:09;;;;;;;15.00;2.83;;;30.90;50.60;;;;;;5024735;28;20048;-62
2022/07/14 12:14:49;;;;;;;21.08;2.75;;;31.00;50.80;;;;;;5027000;28;20136;-63
2022/07/14 12:17:15;;;;;;;17.15;3.17;;;31.00;50.80;;;;;;5034175;28;20032;-62
2022/07/14 12:19:40;;;;;;;50.80;6.40;;;31.10;50.70;;;;;;5025487;28;20628;-63
2022/07/14 12:22:06;;;;;;;25.30;4.57;;;31.20;50.70;;;;;;5026178;28;20036;-62
2022/07/14 12:24:32;;;;;;;52.22;5.60;;;31.30;50.70;;;;;;5034997;28;20052;-62
2022/07/14 12:27:02;;;;;;;28.90;3.75;;;31.40;50.70;;;;;;5018493;28;20107;-63
2022/07/14 12:29:30;;;;;;;26.58;4.72;;;31.40;50.70;;;;;;5033119;28;20053;-62
2022/07/14 12:32:00;;;;;;;38.15;7.18;;;31.60;50.60;;;;;;5015318;28;20032;-63
2022/07/14 12:34:26;;;;;;;64.55;7.78;;;31.60;50.70;;;;;;5014721;28;20025;-64
2022/07/14 12:36:55;;;;;;;66.50;7.97;;;31.70;50.70;;;;;;5013971;28;20060;-64
2022/07/14 12:39:20;;;;;;;89.05;9.18;;;31.70;50.60;;;;;;5031467;28;20036;-63
2022/07/14 12:41:46;;;;;;;91.90;11.18;;;31.80;50.30;;;;;;5003388;28;20468;-65
2022/07/14 12:44:15;;;;;;;115.22;9.85;;;31.90;50.10;;;;;;5030203;28;20040;-64
2022/07/14 12:47:08;;;;;;;55.80;6.28;;;31.90;50.10;;;;;;5015314;28;20029;-63
2022/07/14 12:49:49;;;;;;;81.82;8.40;;;32.00;49.70;;;;;;5029728;28;20444;-62